sensor_id;sensor_type;location;lat;lon;timestamp;P1;durP1;ratioP1;P2;durP2;ratioP2
69334;SDS011;56477;52.742;15.242;2023-04-25T00:02:04;1.47;;;0.37;;
69334;SDS011;56477;52.742;15.242;2023-04-25T00:04:30;1.35;;;0.43;;
69334;SDS011;56477;52.742;15.242;2023-04-25T00:06:58;3.22;;;0.68;;
69334;SDS011;56477;52.742;15.242;2023-04-25T00:09:27;1.08;;;0.43;;
69334;SDS011;56477;52.742;15.242;2023-04-25T00:11:53;3.25;;;0.80;;
69334;SDS011;56477;52.742;15.242;2023-04-25T00:14:19;2.03;;;0.77;;
69334;SDS011;56477;52.742;15.242;2023-04-25T00:16:44;4.95;;;0.88;;
69334;SDS011;56477;52.742;15.242;2023-04-25T00:19:10;2.83;;;1.15;;
69334;SDS011;56477;52.742;15.242;2023-04-25T00:21:36;3.53;;;0.83;;
69334;SDS011;56477;52.742;15.242;2023-04-25T00:24:06;3.22;;;0.95;;
69334;SDS011;56477;52.742;15.242;2023-04-25T00:26:33;2.53;;;0.70;;
69334;SDS011;56477;52.742;15.242;2023-04-25T00:29:01;3.10;;;1.05;;
69334;SDS011;56477;52.742;15.242;2023-04-25T00:31:27;1.73;;;0.40;;
69334;SDS011;56477;52.742;15.242;2023-04-25T00:33:54;3.87;;;0.97;;
69334;SDS011;56477;52.742;15.242;2023-04-25T00:36:20;3.03;;;1.00;;
69334;SDS011;56477;52.742;15.242;2023-04-25T00:38:47;4.15;;;1.55;;
69334;SDS011;56477;52.742;15.242;2023-04-25T00:41:13;3.67;;;0.95;;
69334;SDS011;56477;52.742;15.242;2023-04-25T00:43:40;3.70;;;1.50;;
69334;SDS011;56477;52.742;15.242;2023-04-25T00:46:06;4.93;;;1.98;;
69334;SDS011;56477;52.742;15.242;2023-04-25T00:48:32;3.78;;;1.60;;
69334;SDS011;56477;52.742;15.242;2023-04-25T00:50:59;3.90;;;1.02;;
69334;SDS011;56477;52.742;15.242;2023-04-25T00:53:26;3.38;;;0.85;;
69334;SDS011;56477;52.742;15.242;2023-04-25T00:55:53;2.57;;;1.00;;
69334;SDS011;56477;52.742;15.242;2023-04-25T00:58:20;2.55;;;0.98;;
69334;SDS011;56477;52.742;15.242;2023-04-25T01:00:47;5.43;;;1.73;;
69334;SDS011;56477;52.742;15.242;2023-04-25T01:03:16;4.70;;;1.77;;
69334;SDS011;56477;52.742;15.242;2023-04-25T01:05:44;5.15;;;1.85;;
69334;SDS011;56477;52.742;15.242;2023-04-25T01:08:12;3.20;;;0.90;;
69334;SDS011;56477;52.742;15.242;2023-04-25T01:10:39;4.00;;;1.13;;
69334;SDS011;56477;52.742;15.242;2023-04-25T01:13:05;3.03;;;1.63;;
69334;SDS011;56477;52.742;15.242;2023-04-25T01:15:31;3.95;;;1.20;;
69334;SDS011;56477;52.742;15.242;2023-04-25T01:17:57;1.98;;;0.82;;
69334;SDS011;56477;52.742;15.242;2023-04-25T01:20:23;3.00;;;1.50;;
69334;SDS011;56477;52.742;15.242;2023-04-25T01:22:51;4.10;;;1.83;;
69334;SDS011;56477;52.742;15.242;2023-04-25T01:25:18;5.00;;;2.03;;
69334;SDS011;56477;52.742;15.242;2023-04-25T01:27:44;5.38;;;2.33;;
69334;SDS011;56477;52.742;15.242;2023-04-25T01:30:11;4.60;;;2.30;;
69334;SDS011;56477;52.742;15.242;2023-04-25T01:32:37;6.40;;;2.60;;
69334;SDS011;56477;52.742;15.242;2023-04-25T01:35:04;3.97;;;1.73;;
69334;SDS011;56477;52.742;15.242;2023-04-25T01:37:36;6.88;;;2.97;;
69334;SDS011;56477;52.742;15.242;2023-04-25T01:40:05;4.78;;;2.28;;
69334;SDS011;56477;52.742;15.242;2023-04-25T01:42:33;8.45;;;3.20;;
69334;SDS011;56477;52.742;15.242;2023-04-25T01:45:01;5.70;;;2.30;;
69334;SDS011;56477;52.742;15.242;2023-04-25T01:47:28;3.85;;;1.70;;
69334;SDS011;56477;52.742;15.242;2023-04-25T01:49:54;9.07;;;3.42;;
69334;SDS011;56477;52.742;15.242;2023-04-25T01:52:20;5.95;;;1.50;;
69334;SDS011;56477;52.742;15.242;2023-04-25T01:54:46;8.17;;;3.40;;
69334;SDS011;56477;52.742;15.242;2023-04-25T01:57:13;6.37;;;3.07;;
69334;SDS011;56477;52.742;15.242;2023-04-25T01:59:39;5.40;;;1.83;;
69334;SDS011;56477;52.742;15.242;2023-04-25T02:02:06;6.57;;;2.80;;
69334;SDS011;56477;52.742;15.242;2023-04-25T02:04:32;7.13;;;3.53;;
69334;SDS011;56477;52.742;15.242;2023-04-25T02:06:58;7.33;;;3.03;;
69334;SDS011;56477;52.742;15.242;2023-04-25T02:09:24;5.85;;;2.30;;
69334;SDS011;56477;52.742;15.242;2023-04-25T02:11:50;5.40;;;2.70;;
69334;SDS011;56477;52.742;15.242;2023-04-25T02:14:16;7.10;;;3.00;;
69334;SDS011;56477;52.742;15.242;2023-04-25T02:16:42;8.60;;;3.63;;
69334;SDS011;56477;52.742;15.242;2023-04-25T02:19:09;4.78;;;2.42;;
69334;SDS011;56477;52.742;15.242;2023-04-25T02:21:36;6.57;;;2.38;;
69334;SDS011;56477;52.742;15.242;2023-04-25T02:24:02;10.18;;;2.72;;
69334;SDS011;56477;52.742;15.242;2023-04-25T02:26:29;5.13;;;1.73;;
69334;SDS011;56477;52.742;15.242;2023-04-25T02:28:56;9.30;;;3.13;;
69334;SDS011;56477;52.742;15.242;2023-04-25T02:31:22;8.00;;;4.07;;
69334;SDS011;56477;52.742;15.242;2023-04-25T02:33:48;8.82;;;4.18;;
69334;SDS011;56477;52.742;15.242;2023-04-25T02:36:14;5.88;;;2.25;;
69334;SDS011;56477;52.742;15.242;2023-04-25T02:38:40;5.90;;;2.50;;
69334;SDS011;56477;52.742;15.242;2023-04-25T02:41:06;8.68;;;4.05;;
69334;SDS011;56477;52.742;15.242;2023-04-25T02:43:32;8.98;;;2.95;;
69334;SDS011;56477;52.742;15.242;2023-04-25T02:45:58;5.73;;;2.00;;
69334;SDS011;56477;52.742;15.242;2023-04-25T02:48:24;5.88;;;2.25;;
69334;SDS011;56477;52.742;15.242;2023-04-25T02:50:50;6.80;;;2.75;;
69334;SDS011;56477;52.742;15.242;2023-04-25T02:53:16;10.97;;;2.90;;
69334;SDS011;56477;52.742;15.242;2023-04-25T02:55:42;3.50;;;1.38;;
69334;SDS011;56477;52.742;15.242;2023-04-25T02:58:08;4.90;;;2.10;;
69334;SDS011;56477;52.742;15.242;2023-04-25T03:00:34;6.93;;;2.10;;
69334;SDS011;56477;52.742;15.242;2023-04-25T03:03:00;6.10;;;3.23;;
69334;SDS011;56477;52.742;15.242;2023-04-25T03:05:26;7.95;;;3.45;;
69334;SDS011;56477;52.742;15.242;2023-04-25T03:07:52;7.75;;;3.85;;
69334;SDS011;56477;52.742;15.242;2023-04-25T03:10:18;4.32;;;1.95;;
69334;SDS011;56477;52.742;15.242;2023-04-25T03:12:44;5.40;;;2.47;;
69334;SDS011;56477;52.742;15.242;2023-04-25T03:15:10;10.18;;;3.50;;
69334;SDS011;56477;52.742;15.242;2023-04-25T03:17:36;6.55;;;1.48;;
69334;SDS011;56477;52.742;15.242;2023-04-25T03:20:02;7.57;;;2.67;;
69334;SDS011;56477;52.742;15.242;2023-04-25T03:22:29;5.70;;;1.88;;
69334;SDS011;56477;52.742;15.242;2023-04-25T03:24:55;8.40;;;3.88;;
69334;SDS011;56477;52.742;15.242;2023-04-25T03:27:21;6.78;;;2.92;;
69334;SDS011;56477;52.742;15.242;2023-04-25T03:29:47;7.97;;;3.30;;
69334;SDS011;56477;52.742;15.242;2023-04-25T03:32:13;6.47;;;2.60;;
69334;SDS011;56477;52.742;15.242;2023-04-25T03:34:39;8.68;;;3.70;;
69334;SDS011;56477;52.742;15.242;2023-04-25T03:37:05;6.35;;;2.33;;
69334;SDS011;56477;52.742;15.242;2023-04-25T03:39:31;6.97;;;3.23;;
69334;SDS011;56477;52.742;15.242;2023-04-25T03:41:57;8.95;;;3.58;;
69334;SDS011;56477;52.742;15.242;2023-04-25T03:44:23;5.70;;;2.33;;
69334;SDS011;56477;52.742;15.242;2023-04-25T03:46:49;7.65;;;3.17;;
69334;SDS011;56477;52.742;15.242;2023-04-25T03:49:16;8.00;;;4.03;;
69334;SDS011;56477;52.742;15.242;2023-04-25T03:51:42;7.90;;;2.40;;
69334;SDS011;56477;52.742;15.242;2023-04-25T03:54:08;7.15;;;3.05;;
69334;SDS011;56477;52.742;15.242;2023-04-25T03:56:33;11.52;;;3.75;;
69334;SDS011;56477;52.742;15.242;2023-04-25T03:59:00;5.13;;;2.33;;
69334;SDS011;56477;52.742;15.242;2023-04-25T04:01:26;7.20;;;3.00;;
69334;SDS011;56477;52.742;15.242;2023-04-25T04:03:52;5.60;;;2.78;;
69334;SDS011;56477;52.742;15.242;2023-04-25T04:06:18;7.30;;;2.53;;
69334;SDS011;56477;52.742;15.242;2023-04-25T04:08:46;8.07;;;3.88;;
69334;SDS011;56477;52.742;15.242;2023-04-25T04:11:12;7.45;;;3.25;;
69334;SDS011;56477;52.742;15.242;2023-04-25T04:13:38;3.80;;;1.63;;
69334;SDS011;56477;52.742;15.242;2023-04-25T04:16:04;7.27;;;2.53;;
69334;SDS011;56477;52.742;15.242;2023-04-25T04:18:31;6.75;;;3.47;;
69334;SDS011;56477;52.742;15.242;2023-04-25T04:20:58;10.13;;;3.92;;
69334;SDS011;56477;52.742;15.242;2023-04-25T04:23:25;9.52;;;3.47;;
69334;SDS011;56477;52.742;15.242;2023-04-25T04:25:52;9.40;;;3.15;;
69334;SDS011;56477;52.742;15.242;2023-04-25T04:28:19;7.37;;;3.57;;
69334;SDS011;56477;52.742;15.242;2023-04-25T04:30:45;10.13;;;3.90;;
69334;SDS011;56477;52.742;15.242;2023-04-25T04:33:12;7.72;;;2.83;;
69334;SDS011;56477;52.742;15.242;2023-04-25T04:35:38;6.07;;;2.75;;
69334;SDS011;56477;52.742;15.242;2023-04-25T04:38:04;8.85;;;2.92;;
69334;SDS011;56477;52.742;15.242;2023-04-25T04:40:30;5.77;;;2.20;;
69334;SDS011;56477;52.742;15.242;2023-04-25T04:42:57;7.57;;;3.40;;
69334;SDS011;56477;52.742;15.242;2023-04-25T04:45:23;4.90;;;2.00;;
69334;SDS011;56477;52.742;15.242;2023-04-25T04:47:49;5.90;;;1.97;;
69334;SDS011;56477;52.742;15.242;2023-04-25T04:50:15;7.45;;;2.97;;
69334;SDS011;56477;52.742;15.242;2023-04-25T04:52:42;6.55;;;2.45;;
69334;SDS011;56477;52.742;15.242;2023-04-25T04:55:08;9.38;;;3.58;;
69334;SDS011;56477;52.742;15.242;2023-04-25T04:57:34;6.43;;;2.30;;
69334;SDS011;56477;52.742;15.242;2023-04-25T05:00:01;7.60;;;2.57;;
69334;SDS011;56477;52.742;15.242;2023-04-25T05:02:30;7.13;;;2.50;;
69334;SDS011;56477;52.742;15.242;2023-04-25T05:04:56;3.85;;;1.63;;
69334;SDS011;56477;52.742;15.242;2023-04-25T05:07:22;10.27;;;3.33;;
69334;SDS011;56477;52.742;15.242;2023-04-25T05:09:48;9.10;;;3.20;;
69334;SDS011;56477;52.742;15.242;2023-04-25T05:12:14;7.15;;;3.42;;
69334;SDS011;56477;52.742;15.242;2023-04-25T05:14:40;9.23;;;3.58;;
69334;SDS011;56477;52.742;15.242;2023-04-25T05:17:06;6.75;;;1.90;;
69334;SDS011;56477;52.742;15.242;2023-04-25T05:19:33;10.20;;;3.27;;
69334;SDS011;56477;52.742;15.242;2023-04-25T05:22:00;6.82;;;2.65;;
69334;SDS011;56477;52.742;15.242;2023-04-25T05:24:26;6.45;;;2.50;;
69334;SDS011;56477;52.742;15.242;2023-04-25T05:26:52;8.00;;;2.70;;
69334;SDS011;56477;52.742;15.242;2023-04-25T05:29:18;6.70;;;2.42;;
69334;SDS011;56477;52.742;15.242;2023-04-25T05:31:45;7.10;;;2.43;;
69334;SDS011;56477;52.742;15.242;2023-04-25T05:34:12;6.60;;;2.85;;
69334;SDS011;56477;52.742;15.242;2023-04-25T05:36:39;6.43;;;2.45;;
69334;SDS011;56477;52.742;15.242;2023-04-25T05:39:05;6.88;;;2.58;;
69334;SDS011;56477;52.742;15.242;2023-04-25T05:41:32;8.43;;;1.77;;
69334;SDS011;56477;52.742;15.242;2023-04-25T05:43:57;7.53;;;2.27;;
69334;SDS011;56477;52.742;15.242;2023-04-25T05:46:24;6.53;;;2.63;;
69334;SDS011;56477;52.742;15.242;2023-04-25T05:48:49;5.70;;;2.50;;
69334;SDS011;56477;52.742;15.242;2023-04-25T05:51:16;11.52;;;2.08;;
69334;SDS011;56477;52.742;15.242;2023-04-25T05:53:43;5.13;;;2.30;;
69334;SDS011;56477;52.742;15.242;2023-04-25T05:56:10;10.55;;;3.28;;
69334;SDS011;56477;52.742;15.242;2023-04-25T05:58:35;8.88;;;2.17;;
69334;SDS011;56477;52.742;15.242;2023-04-25T06:01:02;6.38;;;2.70;;
69334;SDS011;56477;52.742;15.242;2023-04-25T06:03:28;11.57;;;3.20;;
69334;SDS011;56477;52.742;15.242;2023-04-25T06:05:54;5.90;;;2.63;;
69334;SDS011;56477;52.742;15.242;2023-04-25T06:08:20;8.15;;;2.75;;
69334;SDS011;56477;52.742;15.242;2023-04-25T06:10:46;3.80;;;1.35;;
69334;SDS011;56477;52.742;15.242;2023-04-25T06:13:12;5.57;;;2.07;;
69334;SDS011;56477;52.742;15.242;2023-04-25T06:15:40;6.50;;;1.67;;
69334;SDS011;56477;52.742;15.242;2023-04-25T06:18:06;6.47;;;2.38;;
69334;SDS011;56477;52.742;15.242;2023-04-25T06:20:32;5.38;;;2.50;;
69334;SDS011;56477;52.742;15.242;2023-04-25T06:22:58;6.53;;;3.50;;
69334;SDS011;56477;52.742;15.242;2023-04-25T06:25:24;6.45;;;2.13;;
69334;SDS011;56477;52.742;15.242;2023-04-25T06:27:50;5.53;;;2.80;;
69334;SDS011;56477;52.742;15.242;2023-04-25T06:30:16;14.27;;;4.47;;
69334;SDS011;56477;52.742;15.242;2023-04-25T06:32:47;11.43;;;2.77;;
69334;SDS011;56477;52.742;15.242;2023-04-25T06:35:13;5.93;;;2.45;;
69334;SDS011;56477;52.742;15.242;2023-04-25T06:37:39;6.25;;;1.60;;
69334;SDS011;56477;52.742;15.242;2023-04-25T06:40:05;6.60;;;2.10;;
69334;SDS011;56477;52.742;15.242;2023-04-25T06:42:31;7.63;;;2.43;;
69334;SDS011;56477;52.742;15.242;2023-04-25T06:44:58;7.72;;;2.53;;
69334;SDS011;56477;52.742;15.242;2023-04-25T06:47:23;8.95;;;3.63;;
69334;SDS011;56477;52.742;15.242;2023-04-25T06:49:49;8.15;;;3.13;;
69334;SDS011;56477;52.742;15.242;2023-04-25T06:52:15;8.07;;;2.73;;
69334;SDS011;56477;52.742;15.242;2023-04-25T06:54:43;8.25;;;2.10;;
69334;SDS011;56477;52.742;15.242;2023-04-25T06:57:10;5.00;;;1.92;;
69334;SDS011;56477;52.742;15.242;2023-04-25T06:59:36;8.75;;;2.28;;
69334;SDS011;56477;52.742;15.242;2023-04-25T07:02:02;8.40;;;2.87;;
69334;SDS011;56477;52.742;15.242;2023-04-25T07:04:29;5.47;;;2.45;;
69334;SDS011;56477;52.742;15.242;2023-04-25T07:06:56;7.68;;;2.67;;
69334;SDS011;56477;52.742;15.242;2023-04-25T07:09:22;5.75;;;2.47;;
69334;SDS011;56477;52.742;15.242;2023-04-25T07:11:48;6.63;;;1.67;;
69334;SDS011;56477;52.742;15.242;2023-04-25T07:14:14;7.35;;;2.83;;
69334;SDS011;56477;52.742;15.242;2023-04-25T07:16:40;6.95;;;2.45;;
69334;SDS011;56477;52.742;15.242;2023-04-25T07:19:07;5.03;;;2.08;;
69334;SDS011;56477;52.742;15.242;2023-04-25T07:21:33;5.80;;;2.42;;
69334;SDS011;56477;52.742;15.242;2023-04-25T07:23:59;6.10;;;2.37;;
69334;SDS011;56477;52.742;15.242;2023-04-25T07:26:25;5.18;;;2.33;;
69334;SDS011;56477;52.742;15.242;2023-04-25T07:28:51;7.03;;;2.60;;
69334;SDS011;56477;52.742;15.242;2023-04-25T07:31:17;8.23;;;2.70;;
69334;SDS011;56477;52.742;15.242;2023-04-25T07:33:46;5.88;;;2.35;;
69334;SDS011;56477;52.742;15.242;2023-04-25T07:36:12;6.07;;;2.70;;
69334;SDS011;56477;52.742;15.242;2023-04-25T07:38:38;5.43;;;2.55;;
69334;SDS011;56477;52.742;15.242;2023-04-25T07:41:04;6.80;;;2.80;;
69334;SDS011;56477;52.742;15.242;2023-04-25T07:43:31;6.07;;;2.13;;
69334;SDS011;56477;52.742;15.242;2023-04-25T07:45:56;6.30;;;2.67;;
69334;SDS011;56477;52.742;15.242;2023-04-25T07:48:23;10.40;;;2.10;;
69334;SDS011;56477;52.742;15.242;2023-04-25T07:50:49;4.57;;;2.10;;
69334;SDS011;56477;52.742;15.242;2023-04-25T07:53:14;5.53;;;2.00;;
69334;SDS011;56477;52.742;15.242;2023-04-25T07:55:40;6.97;;;3.13;;
69334;SDS011;56477;52.742;15.242;2023-04-25T07:58:07;3.38;;;1.48;;
69334;SDS011;56477;52.742;15.242;2023-04-25T08:00:34;10.23;;;3.17;;
69334;SDS011;56477;52.742;15.242;2023-04-25T08:03:00;6.15;;;2.50;;
69334;SDS011;56477;52.742;15.242;2023-04-25T08:05:26;5.72;;;1.80;;
69334;SDS011;56477;52.742;15.242;2023-04-25T08:07:52;8.35;;;2.95;;
69334;SDS011;56477;52.742;15.242;2023-04-25T08:10:18;5.23;;;2.57;;
69334;SDS011;56477;52.742;15.242;2023-04-25T08:12:43;5.57;;;2.05;;
69334;SDS011;56477;52.742;15.242;2023-04-25T08:15:09;3.35;;;1.90;;
69334;SDS011;56477;52.742;15.242;2023-04-25T08:17:35;3.35;;;1.80;;
69334;SDS011;56477;52.742;15.242;2023-04-25T08:20:02;4.27;;;1.60;;
69334;SDS011;56477;52.742;15.242;2023-04-25T08:22:31;5.15;;;2.17;;
69334;SDS011;56477;52.742;15.242;2023-04-25T08:24:57;5.75;;;2.25;;
69334;SDS011;56477;52.742;15.242;2023-04-25T08:27:23;6.32;;;2.25;;
69334;SDS011;56477;52.742;15.242;2023-04-25T08:29:49;5.23;;;2.30;;
69334;SDS011;56477;52.742;15.242;2023-04-25T08:32:16;6.55;;;2.17;;
69334;SDS011;56477;52.742;15.242;2023-04-25T08:34:42;4.70;;;1.80;;
69334;SDS011;56477;52.742;15.242;2023-04-25T08:37:09;5.68;;;2.60;;
69334;SDS011;56477;52.742;15.242;2023-04-25T08:39:36;5.43;;;1.95;;
69334;SDS011;56477;52.742;15.242;2023-04-25T08:42:02;5.27;;;2.43;;
69334;SDS011;56477;52.742;15.242;2023-04-25T08:44:34;4.95;;;1.60;;
69334;SDS011;56477;52.742;15.242;2023-04-25T08:47:04;6.63;;;2.17;;
69334;SDS011;56477;52.742;15.242;2023-04-25T08:49:34;11.13;;;2.55;;
69334;SDS011;56477;52.742;15.242;2023-04-25T08:52:04;3.00;;;1.50;;
69334;SDS011;56477;52.742;15.242;2023-04-25T08:54:32;5.40;;;1.77;;
69334;SDS011;56477;52.742;15.242;2023-04-25T08:57:01;3.65;;;1.35;;
69334;SDS011;56477;52.742;15.242;2023-04-25T08:59:29;4.18;;;1.70;;
69334;SDS011;56477;52.742;15.242;2023-04-25T09:01:56;7.20;;;2.50;;
69334;SDS011;56477;52.742;15.242;2023-04-25T09:04:23;7.32;;;2.53;;
69334;SDS011;56477;52.742;15.242;2023-04-25T09:06:49;7.43;;;3.40;;
69334;SDS011;56477;52.742;15.242;2023-04-25T09:09:15;6.00;;;2.42;;
69334;SDS011;56477;52.742;15.242;2023-04-25T09:11:41;5.20;;;2.10;;
69334;SDS011;56477;52.742;15.242;2023-04-25T09:19:42;7.00;;;3.10;;
69334;SDS011;56477;52.742;15.242;2023-04-25T09:22:09;9.02;;;3.20;;
69334;SDS011;56477;52.742;15.242;2023-04-25T09:24:39;5.90;;;2.20;;
69334;SDS011;56477;52.742;15.242;2023-04-25T09:27:10;7.17;;;3.97;;
69334;SDS011;56477;52.742;15.242;2023-04-25T09:29:39;7.50;;;2.40;;
69334;SDS011;56477;52.742;15.242;2023-04-25T09:32:16;7.50;;;2.97;;
69334;SDS011;56477;52.742;15.242;2023-04-25T09:37:16;6.13;;;2.75;;
69334;SDS011;56477;52.742;15.242;2023-04-25T09:40:05;6.67;;;2.10;;
69334;SDS011;56477;52.742;15.242;2023-04-25T09:42:35;8.50;;;3.17;;
69334;SDS011;56477;52.742;15.242;2023-04-25T09:45:02;9.20;;;3.25;;
69334;SDS011;56477;52.742;15.242;2023-04-25T09:47:29;7.20;;;3.75;;
69334;SDS011;56477;52.742;15.242;2023-04-25T09:49:55;6.72;;;2.60;;
69334;SDS011;56477;52.742;15.242;2023-04-25T09:52:21;6.77;;;2.20;;
69334;SDS011;56477;52.742;15.242;2023-04-25T09:54:49;8.30;;;2.92;;
69334;SDS011;56477;52.742;15.242;2023-04-25T09:57:16;9.45;;;3.42;;
69334;SDS011;56477;52.742;15.242;2023-04-25T09:59:44;3.65;;;1.58;;
69334;SDS011;56477;52.742;15.242;2023-04-25T10:02:12;8.60;;;2.33;;
69334;SDS011;56477;52.742;15.242;2023-04-25T10:04:39;4.57;;;2.03;;
69334;SDS011;56477;52.742;15.242;2023-04-25T10:07:07;5.82;;;2.30;;
69334;SDS011;56477;52.742;15.242;2023-04-25T10:09:36;5.15;;;1.98;;
69334;SDS011;56477;52.742;15.242;2023-04-25T10:12:05;4.68;;;2.60;;
69334;SDS011;56477;52.742;15.242;2023-04-25T10:14:35;5.97;;;2.20;;
69334;SDS011;56477;52.742;15.242;2023-04-25T10:17:01;6.35;;;2.30;;
69334;SDS011;56477;52.742;15.242;2023-04-25T10:19:28;5.32;;;1.88;;
69334;SDS011;56477;52.742;15.242;2023-04-25T10:25:07;5.47;;;1.88;;
69334;SDS011;56477;52.742;15.242;2023-04-25T10:27:34;4.90;;;2.03;;
69334;SDS011;56477;52.742;15.242;2023-04-25T10:32:32;7.07;;;2.35;;
69334;SDS011;56477;52.742;15.242;2023-04-25T10:35:09;4.10;;;1.42;;
69334;SDS011;56477;52.742;15.242;2023-04-25T10:40:38;5.03;;;2.00;;
69334;SDS011;56477;52.742;15.242;2023-04-25T10:46:24;5.47;;;1.70;;
69334;SDS011;56477;52.742;15.242;2023-04-25T10:48:52;3.42;;;1.50;;
69334;SDS011;56477;52.742;15.242;2023-04-25T10:51:30;4.90;;;1.92;;
69334;SDS011;56477;52.742;15.242;2023-04-25T10:53:58;7.17;;;1.90;;
69334;SDS011;56477;52.742;15.242;2023-04-25T10:56:48;5.90;;;2.28;;
69334;SDS011;56477;52.742;15.242;2023-04-25T10:59:17;7.05;;;1.83;;
69334;SDS011;56477;52.742;15.242;2023-04-25T11:01:47;3.67;;;1.88;;
69334;SDS011;56477;52.742;15.242;2023-04-25T11:04:28;3.60;;;2.10;;
69334;SDS011;56477;52.742;15.242;2023-04-25T11:09:28;6.63;;;2.55;;
69334;SDS011;56477;52.742;15.242;2023-04-25T11:11:54;4.82;;;2.30;;
69334;SDS011;56477;52.742;15.242;2023-04-25T11:14:21;4.38;;;2.05;;
69334;SDS011;56477;52.742;15.242;2023-04-25T11:16:52;5.13;;;2.03;;
69334;SDS011;56477;52.742;15.242;2023-04-25T11:19:20;6.17;;;2.67;;
69334;SDS011;56477;52.742;15.242;2023-04-25T11:21:46;6.20;;;2.55;;
69334;SDS011;56477;52.742;15.242;2023-04-25T11:24:12;7.40;;;2.35;;
69334;SDS011;56477;52.742;15.242;2023-04-25T11:26:41;5.47;;;2.40;;
69334;SDS011;56477;52.742;15.242;2023-04-25T11:29:07;4.83;;;1.50;;
69334;SDS011;56477;52.742;15.242;2023-04-25T11:31:33;6.20;;;1.95;;
69334;SDS011;56477;52.742;15.242;2023-04-25T11:33:59;5.20;;;2.05;;
69334;SDS011;56477;52.742;15.242;2023-04-25T11:36:26;6.05;;;1.77;;
69334;SDS011;56477;52.742;15.242;2023-04-25T11:38:53;4.75;;;1.65;;
69334;SDS011;56477;52.742;15.242;2023-04-25T11:41:19;3.63;;;1.23;;
69334;SDS011;56477;52.742;15.242;2023-04-25T11:43:47;6.63;;;2.45;;
69334;SDS011;56477;52.742;15.242;2023-04-25T11:46:17;7.35;;;2.10;;
69334;SDS011;56477;52.742;15.242;2023-04-25T11:48:45;5.35;;;1.85;;
69334;SDS011;56477;52.742;15.242;2023-04-25T11:51:12;7.32;;;1.92;;
69334;SDS011;56477;52.742;15.242;2023-04-25T11:53:40;7.60;;;1.60;;
69334;SDS011;56477;52.742;15.242;2023-04-25T11:56:11;5.93;;;2.63;;
69334;SDS011;56477;52.742;15.242;2023-04-25T12:01:26;6.13;;;1.52;;
69334;SDS011;56477;52.742;15.242;2023-04-25T12:03:52;6.13;;;2.20;;
69334;SDS011;56477;52.742;15.242;2023-04-25T12:06:18;7.37;;;1.80;;
69334;SDS011;56477;52.742;15.242;2023-04-25T12:09:03;6.35;;;2.00;;
69334;SDS011;56477;52.742;15.242;2023-04-25T12:11:30;6.30;;;2.30;;
69334;SDS011;56477;52.742;15.242;2023-04-25T12:14:03;11.20;;;3.10;;
69334;SDS011;56477;52.742;15.242;2023-04-25T12:16:39;6.40;;;1.52;;
69334;SDS011;56477;52.742;15.242;2023-04-25T12:19:06;7.00;;;2.20;;
69334;SDS011;56477;52.742;15.242;2023-04-25T12:21:33;7.72;;;2.45;;
69334;SDS011;56477;52.742;15.242;2023-04-25T12:24:16;9.82;;;2.58;;
69334;SDS011;56477;52.742;15.242;2023-04-25T12:26:47;9.32;;;1.88;;
69334;SDS011;56477;52.742;15.242;2023-04-25T12:29:27;7.60;;;1.58;;
69334;SDS011;56477;52.742;15.242;2023-04-25T12:31:55;7.13;;;1.63;;
69334;SDS011;56477;52.742;15.242;2023-04-25T12:34:21;12.18;;;2.50;;
69334;SDS011;56477;52.742;15.242;2023-04-25T12:36:49;7.82;;;1.77;;
69334;SDS011;56477;52.742;15.242;2023-04-25T12:39:16;8.23;;;1.90;;
69334;SDS011;56477;52.742;15.242;2023-04-25T12:41:43;7.60;;;1.83;;
69334;SDS011;56477;52.742;15.242;2023-04-25T12:44:09;7.43;;;2.17;;
69334;SDS011;56477;52.742;15.242;2023-04-25T12:46:36;5.82;;;1.55;;
69334;SDS011;56477;52.742;15.242;2023-04-25T12:49:03;7.10;;;2.20;;
69334;SDS011;56477;52.742;15.242;2023-04-25T12:51:29;5.45;;;1.02;;
69334;SDS011;56477;52.742;15.242;2023-04-25T12:53:56;5.05;;;1.48;;
69334;SDS011;56477;52.742;15.242;2023-04-25T12:56:22;4.87;;;1.13;;
69334;SDS011;56477;52.742;15.242;2023-04-25T12:58:48;5.63;;;1.27;;
69334;SDS011;56477;52.742;15.242;2023-04-25T13:01:14;7.68;;;1.63;;
69334;SDS011;56477;52.742;15.242;2023-04-25T13:03:40;6.30;;;1.60;;
69334;SDS011;56477;52.742;15.242;2023-04-25T13:06:06;2.30;;;0.70;;
69334;SDS011;56477;52.742;15.242;2023-04-25T13:08:33;6.63;;;1.00;;
69334;SDS011;56477;52.742;15.242;2023-04-25T13:11:00;5.55;;;1.30;;
69334;SDS011;56477;52.742;15.242;2023-04-25T13:13:26;6.53;;;1.97;;
69334;SDS011;56477;52.742;15.242;2023-04-25T13:15:52;5.73;;;1.40;;
69334;SDS011;56477;52.742;15.242;2023-04-25T13:18:18;14.60;;;1.85;;
69334;SDS011;56477;52.742;15.242;2023-04-25T13:20:45;5.15;;;1.38;;
69334;SDS011;56477;52.742;15.242;2023-04-25T13:23:11;9.20;;;2.20;;
69334;SDS011;56477;52.742;15.242;2023-04-25T13:25:38;11.17;;;2.10;;
69334;SDS011;56477;52.742;15.242;2023-04-25T13:28:04;7.68;;;2.05;;
69334;SDS011;56477;52.742;15.242;2023-04-25T13:30:30;6.28;;;2.10;;
69334;SDS011;56477;52.742;15.242;2023-04-25T13:32:56;6.80;;;1.30;;
69334;SDS011;56477;52.742;15.242;2023-04-25T13:35:22;6.35;;;1.85;;
69334;SDS011;56477;52.742;15.242;2023-04-25T13:37:48;5.30;;;1.02;;
69334;SDS011;56477;52.742;15.242;2023-04-25T13:40:15;5.68;;;1.40;;
69334;SDS011;56477;52.742;15.242;2023-04-25T13:42:41;5.23;;;1.70;;
69334;SDS011;56477;52.742;15.242;2023-04-25T13:45:09;5.93;;;1.10;;
69334;SDS011;56477;52.742;15.242;2023-04-25T13:47:35;4.75;;;0.98;;
69334;SDS011;56477;52.742;15.242;2023-04-25T13:50:02;6.85;;;0.98;;
69334;SDS011;56477;52.742;15.242;2023-04-25T13:52:28;2.97;;;0.90;;
69334;SDS011;56477;52.742;15.242;2023-04-25T13:54:55;8.65;;;1.00;;
69334;SDS011;56477;52.742;15.242;2023-04-25T13:57:21;5.95;;;1.13;;
69334;SDS011;56477;52.742;15.242;2023-04-25T13:59:47;6.95;;;1.15;;
69334;SDS011;56477;52.742;15.242;2023-04-25T14:02:13;11.03;;;2.07;;
69334;SDS011;56477;52.742;15.242;2023-04-25T14:04:40;7.72;;;1.45;;
69334;SDS011;56477;52.742;15.242;2023-04-25T14:07:06;6.40;;;1.20;;
69334;SDS011;56477;52.742;15.242;2023-04-25T14:09:32;7.47;;;1.42;;
69334;SDS011;56477;52.742;15.242;2023-04-25T14:11:58;6.85;;;1.35;;
69334;SDS011;56477;52.742;15.242;2023-04-25T14:14:24;5.30;;;0.70;;
69334;SDS011;56477;52.742;15.242;2023-04-25T14:16:50;8.82;;;1.30;;
69334;SDS011;56477;52.742;15.242;2023-04-25T14:19:19;8.55;;;1.42;;
69334;SDS011;56477;52.742;15.242;2023-04-25T14:21:46;7.97;;;1.88;;
69334;SDS011;56477;52.742;15.242;2023-04-25T14:24:13;4.10;;;0.93;;
69334;SDS011;56477;52.742;15.242;2023-04-25T14:26:39;3.83;;;1.10;;
69334;SDS011;56477;52.742;15.242;2023-04-25T14:29:06;5.00;;;1.77;;
69334;SDS011;56477;52.742;15.242;2023-04-25T14:31:34;8.68;;;1.25;;
69334;SDS011;56477;52.742;15.242;2023-04-25T14:34:01;3.15;;;1.00;;
69334;SDS011;56477;52.742;15.242;2023-04-25T14:36:27;7.97;;;1.23;;
69334;SDS011;56477;52.742;15.242;2023-04-25T14:38:54;3.63;;;0.80;;
69334;SDS011;56477;52.742;15.242;2023-04-25T14:41:20;3.72;;;0.73;;
69334;SDS011;56477;52.742;15.242;2023-04-25T14:43:46;4.90;;;1.23;;
69334;SDS011;56477;52.742;15.242;2023-04-25T14:46:12;7.53;;;1.15;;
69334;SDS011;56477;52.742;15.242;2023-04-25T14:48:38;4.00;;;0.80;;
69334;SDS011;56477;52.742;15.242;2023-04-25T14:51:04;5.20;;;0.73;;
69334;SDS011;56477;52.742;15.242;2023-04-25T14:53:31;4.30;;;1.02;;
69334;SDS011;56477;52.742;15.242;2023-04-25T14:55:57;4.63;;;0.77;;
69334;SDS011;56477;52.742;15.242;2023-04-25T14:58:23;5.33;;;1.07;;